sensor_id;sensor_type;location;lat;lon;timestamp;pressure;altitude;pressure_sealevel;temperature;humidity
64853;BME280;56050;55.558;-4.644;2022-07-23T00:00:32;101752.88;;;19.25;64.73
64853;BME280;56050;55.558;-4.644;2022-07-23T00:02:58;101747.84;;;19.23;64.50
64853;BME280;56050;55.558;-4.644;2022-07-23T00:05:23;101744.00;;;19.21;64.64
64853;BME280;56050;55.558;-4.644;2022-07-23T00:07:49;101744.06;;;19.17;64.63
64853;BME280;56050;55.558;-4.644;2022-07-23T00:10:14;101739.84;;;19.13;64.64
64853;BME280;56050;55.558;-4.644;2022-07-23T00:12:40;101739.16;;;19.09;64.74
64853;BME280;56050;55.558;-4.644;2022-07-23T00:15:06;101734.50;;;19.06;65.02
64853;BME280;56050;55.558;-4.644;2022-07-23T00:17:32;101732.63;;;19.03;65.10
64853;BME280;56050;55.558;-4.644;2022-07-23T00:19:57;101730.75;;;19.00;65.40
64853;BME280;56050;55.558;-4.644;2022-07-23T00:22:23;101725.34;;;18.96;65.29
64853;BME280;56050;55.558;-4.644;2022-07-23T00:24:49;101722.63;;;18.96;65.31
64853;BME280;56050;55.558;-4.644;2022-07-23T00:27:14;101723.03;;;18.95;65.43
64853;BME280;56050;55.558;-4.644;2022-07-23T00:29:40;101721.84;;;18.96;65.14
64853;BME280;56050;55.558;-4.644;2022-07-23T00:32:05;101720.66;;;18.97;65.35
64853;BME280;56050;55.558;-4.644;2022-07-23T00:34:31;101718.28;;;18.99;65.32
64853;BME280;56050;55.558;-4.644;2022-07-23T00:36:56;101710.03;;;19.02;65.57
64853;BME280;56050;55.558;-4.644;2022-07-23T00:39:22;101704.06;;;19.07;65.35
64853;BME280;56050;55.558;-4.644;2022-07-23T00:41:49;101700.50;;;19.10;65.42
64853;BME280;56050;55.558;-4.644;2022-07-23T00:44:26;101696.16;;;19.13;65.27
64853;BME280;56050;55.558;-4.644;2022-07-23T00:46:55;101690.63;;;19.16;65.18
64853;BME280;56050;55.558;-4.644;2022-07-23T00:49:22;101692.09;;;19.21;65.08
64853;BME280;56050;55.558;-4.644;2022-07-23T00:51:49;101698.22;;;19.25;65.17
64853;BME280;56050;55.558;-4.644;2022-07-23T00:54:15;101688.00;;;19.29;65.12
64853;BME280;56050;55.558;-4.644;2022-07-23T00:56:43;101685.63;;;19.31;65.13
64853;BME280;56050;55.558;-4.644;2022-07-23T00:59:10;101688.72;;;19.33;65.21
64853;BME280;56050;55.558;-4.644;2022-07-23T01:01:36;101689.47;;;19.33;65.10
64853;BME280;56050;55.558;-4.644;2022-07-23T01:04:02;101683.25;;;19.33;64.95
64853;BME280;56050;55.558;-4.644;2022-07-23T01:06:28;101690.69;;;19.32;65.13
64853;BME280;56050;55.558;-4.644;2022-07-23T01:08:54;101682.53;;;19.29;64.93
64853;BME280;56050;55.558;-4.644;2022-07-23T01:11:22;101680.25;;;19.27;65.15
64853;BME280;56050;55.558;-4.644;2022-07-23T01:13:48;101676.38;;;19.25;65.20
64853;BME280;56050;55.558;-4.644;2022-07-23T01:16:14;101673.31;;;19.23;65.33
64853;BME280;56050;55.558;-4.644;2022-07-23T01:18:39;101669.78;;;19.22;65.09
64853;BME280;56050;55.558;-4.644;2022-07-23T01:21:05;101671.00;;;19.21;65.32
64853;BME280;56050;55.558;-4.644;2022-07-23T01:23:31;101649.16;;;19.21;65.37
64853;BME280;56050;55.558;-4.644;2022-07-23T01:25:56;101652.66;;;19.22;65.23
64853;BME280;56050;55.558;-4.644;2022-07-23T01:28:22;101660.41;;;19.23;65.21
64853;BME280;56050;55.558;-4.644;2022-07-23T01:30:48;101652.56;;;19.25;65.29
64853;BME280;56050;55.558;-4.644;2022-07-23T01:33:14;101654.88;;;19.27;65.15
64853;BME280;56050;55.558;-4.644;2022-07-23T01:35:40;101646.59;;;19.30;65.33
64853;BME280;56050;55.558;-4.644;2022-07-23T01:38:05;101651.22;;;19.33;65.27
64853;BME280;56050;55.558;-4.644;2022-07-23T01:40:31;101646.13;;;19.35;65.04
64853;BME280;56050;55.558;-4.644;2022-07-23T01:42:56;101644.91;;;19.36;65.28
64853;BME280;56050;55.558;-4.644;2022-07-23T01:45:22;101643.38;;;19.35;65.17
64853;BME280;56050;55.558;-4.644;2022-07-23T01:47:48;101645.34;;;19.35;65.15
64853;BME280;56050;55.558;-4.644;2022-07-23T01:50:13;101645.00;;;19.33;65.09
64853;BME280;56050;55.558;-4.644;2022-07-23T01:52:39;101652.94;;;19.27;65.22
64853;BME280;56050;55.558;-4.644;2022-07-23T01:55:05;101649.16;;;19.21;65.18
64853;BME280;56050;55.558;-4.644;2022-07-23T01:57:32;101646.22;;;19.12;65.46
64853;BME280;56050;55.558;-4.644;2022-07-23T01:59:57;101643.19;;;19.07;65.46
64853;BME280;56050;55.558;-4.644;2022-07-23T02:02:23;101640.19;;;19.01;65.53
64853;BME280;56050;55.558;-4.644;2022-07-23T02:04:48;101633.28;;;18.97;65.49
64853;BME280;56050;55.558;-4.644;2022-07-23T02:07:14;101634.13;;;18.94;65.83
64853;BME280;56050;55.558;-4.644;2022-07-23T02:09:39;101634.53;;;18.92;65.92
64853;BME280;56050;55.558;-4.644;2022-07-23T02:12:05;101637.25;;;18.92;65.69
64853;BME280;56050;55.558;-4.644;2022-07-23T02:14:30;101629.50;;;18.91;65.83
64853;BME280;56050;55.558;-4.644;2022-07-23T02:16:56;101636.91;;;18.90;66.01
64853;BME280;56050;55.558;-4.644;2022-07-23T02:19:21;101632.56;;;18.93;65.97
64853;BME280;56050;55.558;-4.644;2022-07-23T02:21:47;101627.88;;;18.93;65.59
64853;BME280;56050;55.558;-4.644;2022-07-23T02:24:13;101618.91;;;18.93;65.86
64853;BME280;56050;55.558;-4.644;2022-07-23T02:26:38;101624.81;;;18.91;65.67
64853;BME280;56050;55.558;-4.644;2022-07-23T02:29:04;101621.72;;;18.89;66.00
64853;BME280;56050;55.558;-4.644;2022-07-23T02:31:30;101629.91;;;18.89;65.92
64853;BME280;56050;55.558;-4.644;2022-07-23T02:33:56;101631.03;;;18.92;65.75
64853;BME280;56050;55.558;-4.644;2022-07-23T02:36:23;101632.56;;;18.93;65.89
64853;BME280;56050;55.558;-4.644;2022-07-23T02:38:48;101630.94;;;18.95;65.68
64853;BME280;56050;55.558;-4.644;2022-07-23T02:41:14;101633.69;;;18.95;65.77
64853;BME280;56050;55.558;-4.644;2022-07-23T02:43:39;101631.72;;;18.96;65.90
64853;BME280;56050;55.558;-4.644;2022-07-23T02:46:05;101629.44;;;18.94;65.74
64853;BME280;56050;55.558;-4.644;2022-07-23T02:48:30;101627.88;;;18.93;65.96
64853;BME280;56050;55.558;-4.644;2022-07-23T02:50:56;101626.31;;;18.92;65.94
64853;BME280;56050;55.558;-4.644;2022-07-23T02:53:22;101628.31;;;18.92;65.96
64853;BME280;56050;55.558;-4.644;2022-07-23T02:55:48;101623.25;;;18.90;65.88
64853;BME280;56050;55.558;-4.644;2022-07-23T02:58:14;101624.81;;;18.91;65.90
64853;BME280;56050;55.558;-4.644;2022-07-23T03:00:39;101619.34;;;18.91;65.93
64853;BME280;56050;55.558;-4.644;2022-07-23T03:03:05;101611.56;;;18.90;66.03
64853;BME280;56050;55.558;-4.644;2022-07-23T03:05:31;101608.47;;;18.88;66.02
64853;BME280;56050;55.558;-4.644;2022-07-23T03:07:57;101608.47;;;18.88;65.99
64853;BME280;56050;55.558;-4.644;2022-07-23T03:10:22;101600.72;;;18.86;65.86
64853;BME280;56050;55.558;-4.644;2022-07-23T03:12:48;101603.53;;;18.83;65.92
64853;BME280;56050;55.558;-4.644;2022-07-23T03:15:13;101600.09;;;18.78;66.26
64853;BME280;56050;55.558;-4.644;2022-07-23T03:17:39;101591.63;;;18.73;66.35
64853;BME280;56050;55.558;-4.644;2022-07-23T03:20:05;101604.16;;;18.70;66.33
64853;BME280;56050;55.558;-4.644;2022-07-23T03:22:31;101601.91;;;18.65;66.44
64853;BME280;56050;55.558;-4.644;2022-07-23T03:24:56;101586.72;;;18.64;66.63
64853;BME280;56050;55.558;-4.644;2022-07-23T03:27:23;101587.97;;;18.60;66.37
64853;BME280;56050;55.558;-4.644;2022-07-23T03:29:50;101595.06;;;18.57;66.79
64853;BME280;56050;55.558;-4.644;2022-07-23T03:32:16;101595.88;;;18.54;66.67
64853;BME280;56050;55.558;-4.644;2022-07-23T03:34:41;101578.78;;;18.50;66.85
64853;BME280;56050;55.558;-4.644;2022-07-23T03:37:07;101583.50;;;18.50;66.55
64853;BME280;56050;55.558;-4.644;2022-07-23T03:39:33;101583.13;;;18.48;66.81
64853;BME280;56050;55.558;-4.644;2022-07-23T03:41:58;101578.84;;;18.47;66.90
64853;BME280;56050;55.558;-4.644;2022-07-23T03:44:24;101570.38;;;18.41;66.89
64853;BME280;56050;55.558;-4.644;2022-07-23T03:46:49;101580.19;;;18.39;66.90
64853;BME280;56050;55.558;-4.644;2022-07-23T03:49:15;101577.09;;;18.37;67.10
64853;BME280;56050;55.558;-4.644;2022-07-23T03:51:40;101573.94;;;18.38;67.01
64853;BME280;56050;55.558;-4.644;2022-07-23T03:54:06;101563.03;;;18.38;67.01
64853;BME280;56050;55.558;-4.644;2022-07-23T03:56:31;101562.69;;;18.36;67.07
64853;BME280;56050;55.558;-4.644;2022-07-23T03:58:57;101551.00;;;18.36;67.01
64853;BME280;56050;55.558;-4.644;2022-07-23T04:01:22;101548.28;;;18.36;66.83
64853;BME280;56050;55.558;-4.644;2022-07-23T04:03:48;101542.38;;;18.37;67.05
64853;BME280;56050;55.558;-4.644;2022-07-23T04:06:13;101547.78;;;18.41;67.10
64853;BME280;56050;55.558;-4.644;2022-07-23T04:08:39;101545.84;;;18.41;66.93
64853;BME280;56050;55.558;-4.644;2022-07-23T04:11:04;101546.19;;;18.43;66.92
64853;BME280;56050;55.558;-4.644;2022-07-23T04:13:30;101555.13;;;18.44;66.88
64853;BME280;56050;55.558;-4.644;2022-07-23T04:15:57;101555.13;;;18.44;66.92
64853;BME280;56050;55.558;-4.644;2022-07-23T04:18:23;101557.44;;;18.45;67.09
64853;BME280;56050;55.558;-4.644;2022-07-23T04:20:50;101538.31;;;18.45;67.02
64853;BME280;56050;55.558;-4.644;2022-07-23T04:23:16;101550.78;;;18.46;66.74
64853;BME280;56050;55.558;-4.644;2022-07-23T04:25:42;101543.38;;;18.47;66.98
64853;BME280;56050;55.558;-4.644;2022-07-23T04:28:08;101544.94;;;18.48;67.04
64853;BME280;56050;55.558;-4.644;2022-07-23T04:30:34;101549.22;;;18.49;66.77
64853;BME280;56050;55.558;-4.644;2022-07-23T04:32:59;101533.25;;;18.47;66.75
64853;BME280;56050;55.558;-4.644;2022-07-23T04:35:26;101532.88;;;18.45;66.74
64853;BME280;56050;55.558;-4.644;2022-07-23T04:37:52;101529.81;;;18.43;67.14
64853;BME280;56050;55.558;-4.644;2022-07-23T04:40:17;101529.47;;;18.41;66.86
64853;BME280;56050;55.558;-4.644;2022-07-23T04:42:43;101525.19;;;18.40;66.80
64853;BME280;56050;55.558;-4.644;2022-07-23T04:45:09;101528.34;;;18.39;67.21
64853;BME280;56050;55.558;-4.644;2022-07-23T04:47:34;101533.03;;;18.38;66.85
64853;BME280;56050;55.558;-4.644;2022-07-23T04:50:00;101531.06;;;18.39;66.99
64853;BME280;56050;55.558;-4.644;2022-07-23T04:52:25;101529.09;;;18.39;66.90
64853;BME280;56050;55.558;-4.644;2022-07-23T04:54:51;101522.09;;;18.38;67.12
64853;BME280;56050;55.558;-4.644;2022-07-23T04:57:16;101533.03;;;18.38;66.82
64853;BME280;56050;55.558;-4.644;2022-07-23T04:59:42;101542.81;;;18.36;66.94
64853;BME280;56050;55.558;-4.644;2022-07-23T05:02:07;101539.31;;;18.35;67.07
64853;BME280;56050;55.558;-4.644;2022-07-23T05:04:33;101547.84;;;18.37;67.00
64853;BME280;56050;55.558;-4.644;2022-07-23T05:06:59;101541.22;;;18.38;67.05
64853;BME280;56050;55.558;-4.644;2022-07-23T05:09:25;101538.03;;;18.40;67.11
64853;BME280;56050;55.558;-4.644;2022-07-23T05:11:51;101529.09;;;18.39;66.89
64853;BME280;56050;55.558;-4.644;2022-07-23T05:14:16;101526.84;;;18.34;66.91
64853;BME280;56050;55.558;-4.644;2022-07-23T05:16:42;101524.63;;;18.29;67.37
64853;BME280;56050;55.558;-4.644;2022-07-23T05:19:07;101523.50;;;18.27;67.08
64853;BME280;56050;55.558;-4.644;2022-07-23T05:21:33;101519.66;;;18.24;67.11
64853;BME280;56050;55.558;-4.644;2022-07-23T05:23:58;101519.31;;;18.22;67.16
64853;BME280;56050;55.558;-4.644;2022-07-23T05:26:25;101519.38;;;18.18;67.26
64853;BME280;56050;55.558;-4.644;2022-07-23T05:28:50;101528.72;;;18.17;67.15
64853;BME280;56050;55.558;-4.644;2022-07-23T05:31:16;101518.66;;;18.14;67.37
64853;BME280;56050;55.558;-4.644;2022-07-23T05:33:41;101521.03;;;18.12;67.20
64853;BME280;56050;55.558;-4.644;2022-07-23T05:36:07;101514.81;;;18.12;67.31
64853;BME280;56050;55.558;-4.644;2022-07-23T05:38:33;101507.84;;;18.11;67.45
64853;BME280;56050;55.558;-4.644;2022-07-23T05:40:58;101506.72;;;18.08;67.46
64853;BME280;56050;55.558;-4.644;2022-07-23T05:43:24;101502.78;;;18.09;67.46
64853;BME280;56050;55.558;-4.644;2022-07-23T05:45:49;101502.00;;;18.09;67.37
64853;BME280;56050;55.558;-4.644;2022-07-23T05:48:15;101495.03;;;18.08;67.64
64853;BME280;56050;55.558;-4.644;2022-07-23T05:50:41;101497.75;;;18.08;67.34
64853;BME280;56050;55.558;-4.644;2022-07-23T05:53:06;101493.09;;;18.08;67.49
64853;BME280;56050;55.558;-4.644;2022-07-23T05:55:32;101491.47;;;18.11;67.59
64853;BME280;56050;55.558;-4.644;2022-07-23T05:57:58;101486.78;;;18.11;67.66
64853;BME280;56050;55.558;-4.644;2022-07-23T06:00:25;101482.84;;;18.12;67.54
64853;BME280;56050;55.558;-4.644;2022-07-23T06:02:50;101473.06;;;18.15;67.58
64853;BME280;56050;55.558;-4.644;2022-07-23T06:05:17;101477.34;;;18.16;67.48
64853;BME280;56050;55.558;-4.644;2022-07-23T06:07:43;101473.06;;;18.15;67.31
64853;BME280;56050;55.558;-4.644;2022-07-23T06:10:09;101472.28;;;18.14;67.80
64853;BME280;56050;55.558;-4.644;2022-07-23T06:12:35;101480.06;;;18.16;67.77
64853;BME280;56050;55.558;-4.644;2022-07-23T06:15:01;101478.91;;;18.17;67.73
64853;BME280;56050;55.558;-4.644;2022-07-23T06:17:27;101476.91;;;18.17;67.57
64853;BME280;56050;55.558;-4.644;2022-07-23T06:19:53;101477.28;;;18.19;67.87
64853;BME280;56050;55.558;-4.644;2022-07-23T06:22:19;101476.44;;;18.23;67.75
64853;BME280;56050;55.558;-4.644;2022-07-23T06:24:44;101486.88;;;18.28;67.48
64853;BME280;56050;55.558;-4.644;2022-07-23T06:27:10;101479.34;;;18.32;67.63
64853;BME280;56050;55.558;-4.644;2022-07-23T06:29:35;101478.13;;;18.36;67.67
64853;BME280;56050;55.558;-4.644;2022-07-23T06:32:01;101479.56;;;18.41;67.45
64853;BME280;56050;55.558;-4.644;2022-07-23T06:34:26;101471.66;;;18.46;67.53
64853;BME280;56050;55.558;-4.644;2022-07-23T06:36:52;101475.53;;;18.49;67.68
64853;BME280;56050;55.558;-4.644;2022-07-23T06:39:17;101475.47;;;18.52;67.67
64853;BME280;56050;55.558;-4.644;2022-07-23T06:41:43;101480.09;;;18.55;67.53
64853;BME280;56050;55.558;-4.644;2022-07-23T06:44:08;101469.84;;;18.59;67.70
64853;BME280;56050;55.558;-4.644;2022-07-23T06:46:34;101476.34;;;18.65;67.77
64853;BME280;56050;55.558;-4.644;2022-07-23T06:48:59;101474.75;;;18.68;67.56
64853;BME280;56050;55.558;-4.644;2022-07-23T06:51:25;101473.44;;;18.72;67.46
64853;BME280;56050;55.558;-4.644;2022-07-23T06:53:51;101475.34;;;18.75;67.60
64853;BME280;56050;55.558;-4.644;2022-07-23T06:56:16;101465.53;;;18.78;67.57
64853;BME280;56050;55.558;-4.644;2022-07-23T06:58:41;101470.16;;;18.81;67.58
64853;BME280;56050;55.558;-4.644;2022-07-23T07:01:07;101467.34;;;18.85;67.27
64853;BME280;56050;55.558;-4.644;2022-07-23T07:03:33;101456.69;;;18.90;67.42
64853;BME280;56050;55.558;-4.644;2022-07-23T07:05:58;101451.16;;;18.94;67.36
64853;BME280;56050;55.558;-4.644;2022-07-23T07:08:24;101457.72;;;18.96;67.24
64853;BME280;56050;55.558;-4.644;2022-07-23T07:10:49;101458.50;;;18.97;67.26
64853;BME280;56050;55.558;-4.644;2022-07-23T07:13:15;101460.38;;;19.00;67.21
64853;BME280;56050;55.558;-4.644;2022-07-23T07:15:40;101460.66;;;19.05;67.01
64853;BME280;56050;55.558;-4.644;2022-07-23T07:18:06;101465.66;;;19.07;66.97
64853;BME280;56050;55.558;-4.644;2022-07-23T07:20:31;101461.75;;;19.08;66.59
64853;BME280;56050;55.558;-4.644;2022-07-23T07:22:57;101462.94;;;19.07;66.91
64853;BME280;56050;55.558;-4.644;2022-07-23T07:25:22;101459.75;;;19.08;66.25
64853;BME280;56050;55.558;-4.644;2022-07-23T07:27:48;101457.91;;;19.05;66.64
64853;BME280;56050;55.558;-4.644;2022-07-23T07:30:13;101450.47;;;19.06;66.60
64853;BME280;56050;55.558;-4.644;2022-07-23T07:32:40;101455.06;;;19.09;66.73
64853;BME280;56050;55.558;-4.644;2022-07-23T07:35:06;101444.84;;;19.13;66.51
64853;BME280;56050;55.558;-4.644;2022-07-23T07:37:31;101447.06;;;19.18;66.19
64853;BME280;56050;55.558;-4.644;2022-07-23T07:39:57;101447.06;;;19.18;66.21
64853;BME280;56050;55.558;-4.644;2022-07-23T07:42:22;101444.34;;;19.18;66.30
64853;BME280;56050;55.558;-4.644;2022-07-23T07:44:48;101439.19;;;19.20;66.10
64853;BME280;56050;55.558;-4.644;2022-07-23T07:47:13;101435.69;;;19.19;66.01
64853;BME280;56050;55.558;-4.644;2022-07-23T07:49:41;101432.22;;;19.19;65.90
64853;BME280;56050;55.558;-4.644;2022-07-23T07:52:07;101435.34;;;19.17;65.94
64853;BME280;56050;55.558;-4.644;2022-07-23T07:54:32;101442.03;;;19.16;65.75
64853;BME280;56050;55.558;-4.644;2022-07-23T07:56:58;101437.06;;;19.11;65.64
64853;BME280;56050;55.558;-4.644;2022-07-23T07:59:23;101438.78;;;19.05;65.54
64853;BME280;56050;55.558;-4.644;2022-07-23T08:01:49;101435.03;;;18.99;65.67
64853;BME280;56050;55.558;-4.644;2022-07-23T08:04:14;101437.41;;;18.97;65.68
64853;BME280;56050;55.558;-4.644;2022-07-23T08:06:40;101432.38;;;18.96;65.56
64853;BME280;56050;55.558;-4.644;2022-07-23T08:09:05;101426.91;;;18.96;65.61
64853;BME280;56050;55.558;-4.644;2022-07-23T08:11:31;101425.38;;;18.95;65.17
64853;BME280;56050;55.558;-4.644;2022-07-23T08:13:56;101428.97;;;18.92;65.08
64853;BME280;56050;55.558;-4.644;2022-07-23T08:16:22;101428.97;;;18.92;65.06
64853;BME280;56050;55.558;-4.644;2022-07-23T08:18:47;101425.88;;;18.90;65.12
64853;BME280;56050;55.558;-4.644;2022-07-23T08:21:13;101424.38;;;18.89;64.75
64853;BME280;56050;55.558;-4.644;2022-07-23T08:23:38;101418.13;;;18.88;64.80
64853;BME280;56050;55.558;-4.644;2022-07-23T08:26:04;101415.41;;;18.88;64.71
64853;BME280;56050;55.558;-4.644;2022-07-23T08:28:29;101411.91;;;18.88;64.66
64853;BME280;56050;55.558;-4.644;2022-07-23T08:30:58;101402.53;;;18.89;64.55
64853;BME280;56050;55.558;-4.644;2022-07-23T08:33:25;101396.94;;;18.92;64.45
64853;BME280;56050;55.558;-4.644;2022-07-23T08:35:51;101400.38;;;18.96;64.22
64853;BME280;56050;55.558;-4.644;2022-07-23T08:38:19;101405.00;;;18.99;64.29
64853;BME280;56050;55.558;-4.644;2022-07-23T08:40:47;101411.56;;;19.02;63.89
64853;BME280;56050;55.558;-4.644;2022-07-23T08:43:16;101410.00;;;19.01;63.93
64853;BME280;56050;55.558;-4.644;2022-07-23T08:45:44;101410.78;;;19.01;64.04
64853;BME280;56050;55.558;-4.644;2022-07-23T08:48:34;101405.66;;;19.03;63.90
64853;BME280;56050;55.558;-4.644;2022-07-23T08:51:02;101408.66;;;19.09;63.82
64853;BME280;56050;55.558;-4.644;2022-07-23T08:53:29;101404.72;;;19.10;63.47
64853;BME280;56050;55.558;-4.644;2022-07-23T08:55:58;101405.50;;;19.10;63.49
64853;BME280;56050;55.558;-4.644;2022-07-23T08:58:25;101404.72;;;19.10;63.67
64853;BME280;56050;55.558;-4.644;2022-07-23T09:00:51;101405.25;;;19.05;64.10
64853;BME280;56050;55.558;-4.644;2022-07-23T09:03:23;101403.78;;;19.00;64.01
64853;BME280;56050;55.558;-4.644;2022-07-23T09:05:51;101401.50;;;18.99;64.37
64853;BME280;56050;55.558;-4.644;2022-07-23T09:08:23;101399.94;;;18.98;64.64
64853;BME280;56050;55.558;-4.644;2022-07-23T09:10:50;101395.78;;;18.93;64.76
64853;BME280;56050;55.558;-4.644;2022-07-23T09:13:33;101396.63;;;18.90;64.82
64853;BME280;56050;55.558;-4.644;2022-07-23T09:18:35;101395.59;;;18.84;64.83
64853;BME280;56050;55.558;-4.644;2022-07-23T09:21:27;101386.81;;;18.76;65.14
64853;BME280;56050;55.558;-4.644;2022-07-23T09:24:10;101393.44;;;18.75;65.17
64853;BME280;56050;55.558;-4.644;2022-07-23T09:26:39;101383.31;;;18.76;65.20
64853;BME280;56050;55.558;-4.644;2022-07-23T09:31:49;101370.75;;;18.78;65.47
64853;BME280;56050;55.558;-4.644;2022-07-23T09:34:26;101372.31;;;18.80;65.21
64853;BME280;56050;55.558;-4.644;2022-07-23T09:39:34;101369.50;;;18.83;65.48
64853;BME280;56050;55.558;-4.644;2022-07-23T09:42:23;101365.56;;;18.84;65.52
64853;BME280;56050;55.558;-4.644;2022-07-23T09:44:51;101364.38;;;18.85;65.41
64853;BME280;56050;55.558;-4.644;2022-07-23T09:47:18;101346.38;;;18.88;65.39
64853;BME280;56050;55.558;-4.644;2022-07-23T09:50:03;101347.56;;;18.87;65.60
64853;BME280;56050;55.558;-4.644;2022-07-23T09:52:47;101346.44;;;18.84;65.57
64853;BME280;56050;55.558;-4.644;2022-07-23T09:55:14;101343.38;;;18.82;65.77
64853;BME280;56050;55.558;-4.644;2022-07-23T09:57:43;101339.22;;;18.77;66.00
64853;BME280;56050;55.558;-4.644;2022-07-23T10:00:15;101328.38;;;18.74;66.10
64853;BME280;56050;55.558;-4.644;2022-07-23T10:02:42;101334.69;;;18.71;66.05
64853;BME280;56050;55.558;-4.644;2022-07-23T10:05:11;101326.16;;;18.69;65.94
64853;BME280;56050;55.558;-4.644;2022-07-23T10:07:39;101325.38;;;18.68;66.20
64853;BME280;56050;55.558;-4.644;2022-07-23T10:10:06;101323.50;;;18.65;66.70
64853;BME280;56050;55.558;-4.644;2022-07-23T10:12:32;101313.03;;;18.64;66.51
64853;BME280;56050;55.558;-4.644;2022-07-23T10:15:00;101309.84;;;18.65;67.04
64853;BME280;56050;55.558;-4.644;2022-07-23T10:17:29;101312.91;;;18.67;67.01
64853;BME280;56050;55.558;-4.644;2022-07-23T10:19:55;101310.56;;;18.69;67.07
64853;BME280;56050;55.558;-4.644;2022-07-23T10:22:23;101306.19;;;18.72;66.85
64853;BME280;56050;55.558;-4.644;2022-07-23T10:25:17;101311.91;;;18.77;67.24
64853;BME280;56050;55.558;-4.644;2022-07-23T10:37:51;101304.38;;;18.98;66.87
64853;BME280;56050;55.558;-4.644;2022-07-23T10:40:20;101311.03;;;18.97;67.29
64853;BME280;56050;55.558;-4.644;2022-07-23T10:42:49;101293.09;;;18.96;67.31
64853;BME280;56050;55.558;-4.644;2022-07-23T10:47:48;101293.97;;;18.93;67.33
64853;BME280;56050;55.558;-4.644;2022-07-23T10:50:24;101290.47;;;18.92;67.57
64853;BME280;56050;55.558;-4.644;2022-07-23T10:58:00;101271.94;;;19.00;67.62
64853;BME280;56050;55.558;-4.644;2022-07-23T11:00:36;101280.47;;;19.02;67.58
64853;BME280;56050;55.558;-4.644;2022-07-23T11:03:05;101276.13;;;19.04;67.55
64853;BME280;56050;55.558;-4.644;2022-07-23T11:16:22;101262.22;;;19.27;67.47
64853;BME280;56050;55.558;-4.644;2022-07-23T11:34:44;101221.06;;;19.47;67.15
64853;BME280;56050;55.558;-4.644;2022-07-23T11:37:15;101230.81;;;19.48;66.98
64853;BME280;56050;55.558;-4.644;2022-07-23T11:39:54;101219.03;;;19.51;66.96
64853;BME280;56050;55.558;-4.644;2022-07-23T11:42:20;101220.03;;;19.57;67.04
64853;BME280;56050;55.558;-4.644;2022-07-23T11:44:47;101208.97;;;19.61;67.10
64853;BME280;56050;55.558;-4.644;2022-07-23T11:47:13;101216.28;;;19.64;67.23
64853;BME280;56050;55.558;-4.644;2022-07-23T11:49:39;101208.75;;;19.68;67.18
64853;BME280;56050;55.558;-4.644;2022-07-23T11:52:16;101211.72;;;19.73;66.46
64853;BME280;56050;55.558;-4.644;2022-07-23T11:54:53;101212.03;;;19.75;66.68
64853;BME280;56050;55.558;-4.644;2022-07-23T11:57:21;101210.31;;;19.81;66.60
64853;BME280;56050;55.558;-4.644;2022-07-23T11:59:53;101206.91;;;19.90;66.17
64853;BME280;56050;55.558;-4.644;2022-07-23T12:02:20;101205.59;;;19.94;66.06
64853;BME280;56050;55.558;-4.644;2022-07-23T12:04:49;101202.31;;;20.00;66.00
64853;BME280;56050;55.558;-4.644;2022-07-23T12:07:34;101191.91;;;20.07;66.18
64853;BME280;56050;55.558;-4.644;2022-07-23T12:10:23;101188.16;;;20.14;65.89
64853;BME280;56050;55.558;-4.644;2022-07-23T12:12:56;101180.94;;;20.20;65.30
64853;BME280;56050;55.558;-4.644;2022-07-23T12:15:34;101173.19;;;20.18;64.96
64853;BME280;56050;55.558;-4.644;2022-07-23T12:18:03;101179.41;;;20.19;65.32
64853;BME280;56050;55.558;-4.644;2022-07-23T12:20:36;101168.47;;;20.19;64.89
64853;BME280;56050;55.558;-4.644;2022-07-23T12:23:06;101171.19;;;20.19;64.99
64853;BME280;56050;55.558;-4.644;2022-07-23T12:25:35;101161.38;;;20.21;64.70
64853;BME280;56050;55.558;-4.644;2022-07-23T12:28:14;101163.66;;;20.23;64.52
64853;BME280;56050;55.558;-4.644;2022-07-23T12:30:45;101170.25;;;20.25;64.55
64853;BME280;56050;55.558;-4.644;2022-07-23T12:33:13;101172.41;;;20.30;64.67
64853;BME280;56050;55.558;-4.644;2022-07-23T12:35:44;101168.38;;;20.35;64.35
64853;BME280;56050;55.558;-4.644;2022-07-23T12:38:19;101165.94;;;20.37;64.04
64853;BME280;56050;55.558;-4.644;2022-07-23T12:40:57;101165.94;;;20.37;64.11
64853;BME280;56050;55.558;-4.644;2022-07-23T12:43:31;101158.38;;;20.41;64.08
64853;BME280;56050;55.558;-4.644;2022-07-23T12:46:04;101164.19;;;20.43;64.21
64853;BME280;56050;55.558;-4.644;2022-07-23T12:48:38;101164.03;;;20.46;64.07
64853;BME280;56050;55.558;-4.644;2022-07-23T12:51:08;101155.41;;;20.48;63.99
64853;BME280;56050;55.558;-4.644;2022-07-23T12:53:40;101151.91;;;20.47;63.70
64853;BME280;56050;55.558;-4.644;2022-07-23T12:56:16;101145.06;;;20.52;63.58
64853;BME280;56050;55.558;-4.644;2022-07-23T12:58:50;101147.50;;;20.50;63.72
64853;BME280;56050;55.558;-4.644;2022-07-23T13:04:23;101144.34;;;20.52;63.39
64853;BME280;56050;55.558;-4.644;2022-07-23T13:09:16;101125.91;;;20.52;63.16
64853;BME280;56050;55.558;-4.644;2022-07-23T13:11:43;101119.25;;;20.53;63.21
64853;BME280;56050;55.558;-4.644;2022-07-23T13:14:11;101116.19;;;20.51;63.26
64853;BME280;56050;55.558;-4.644;2022-07-23T13:16:37;101113.88;;;20.49;63.27
64853;BME280;56050;55.558;-4.644;2022-07-23T13:19:03;101114.66;;;20.50;63.37
64853;BME280;56050;55.558;-4.644;2022-07-23T13:21:29;101101.63;;;20.54;63.13
64853;BME280;56050;55.558;-4.644;2022-07-23T13:23:55;101104.66;;;20.56;63.11
64853;BME280;56050;55.558;-4.644;2022-07-23T13:26:21;101103.91;;;20.56;63.19
64853;BME280;56050;55.558;-4.644;2022-07-23T13:28:46;101103.13;;;20.55;62.96
64853;BME280;56050;55.558;-4.644;2022-07-23T13:31:12;101092.31;;;20.52;63.24
64853;BME280;56050;55.558;-4.644;2022-07-23T13:33:38;101099.78;;;20.51;63.20
64853;BME280;56050;55.558;-4.644;2022-07-23T13:36:04;101085.63;;;20.52;63.07
64853;BME280;56050;55.558;-4.644;2022-07-23T13:38:30;101081.69;;;20.54;63.26